Time;durP1;ratioP1;P1;durP2;ratioP2;P2;SDS_P1;SDS_P2;PMS_P1;PMS_P2;Temp;Humidity;BMP_temperature;BMP_pressure;BME280_temperature;BME280_humidity;BME280_pressure;Samples;Min_cycle;Max_cycle;Signal;HPM_P1;HPM_P2
2023/10/16 00:00:29;;;;;;;6.18;0.70;;;;;;;-146.25;100.00;52420.91;2095813;28;38137;-75
2023/10/16 00:01:31;;;;;;;8.05;0.75;;;;;;;-146.25;100.00;52473.63;2096023;28;33368;-75
2023/10/16 00:02:36;;;;;;;5.40;0.70;;;;;;;-146.25;100.00;52439.16;2096265;28;32392;-74
2023/10/16 00:03:42;;;;;;;7.47;0.70;;;;;;;-146.25;100.00;52437.13;2096081;28;34314;-74
2023/10/16 00:04:44;;;;;;;7.97;0.80;;;;;;;-146.25;100.00;52429.03;2096019;28;34441;-74
2023/10/16 00:05:54;;;;;;;9.10;1.38;;;;;;;-146.25;100.00;52441.19;2096002;28;34351;-75
2023/10/16 00:07:00;;;;;;;7.47;0.98;;;;;;;-146.25;100.00;52455.38;2095904;28;33439;-75
2023/10/16 00:08:05;;;;;;;8.20;0.70;;;;;;;-146.25;100.00;52441.19;2095088;28;39224;-77
2023/10/16 00:09:21;;;;;;;7.40;0.68;;;;;;;-146.25;100.00;52420.91;2094790;28;34707;-74
2023/10/16 00:10:25;;;;;;;7.53;0.80;;;;;;;-146.25;100.00;52441.19;2096391;28;36304;-75
2023/10/16 00:11:26;;;;;;;6.57;0.85;;;;;;;-146.25;100.00;52437.13;2086669;28;31583;-75
2023/10/16 00:12:29;;;;;;;8.73;0.70;;;;;;;-146.25;100.00;52418.88;2079410;28;34713;-74
2023/10/16 00:13:38;;;;;;;4.10;0.50;;;;;;;-146.25;100.00;52437.13;2070412;28;36565;-75
2023/10/16 00:14:39;;;;;;;8.00;1.17;;;;;;;-146.25;100.00;52433.06;2089151;28;31985;-75
2023/10/16 00:15:49;;;;;;;5.07;0.63;;;;;;;-146.25;100.00;52410.78;2094826;28;34646;-74
2023/10/16 00:16:51;;;;;;;6.97;0.52;;;;;;;-146.25;100.00;52414.84;2095520;28;33621;-75
2023/10/16 00:17:57;;;;;;;5.80;0.77;;;;;;;-146.25;100.00;52424.97;2095010;28;31871;-76
2023/10/16 00:19:00;;;;;;;8.70;0.60;;;;;;;-146.25;100.00;52441.19;2095237;28;35877;-75
2023/10/16 00:20:02;;;;;;;7.78;0.50;;;;;;;-146.25;100.00;52422.94;2094667;28;35548;-76
2023/10/16 00:21:05;;;;;;;3.03;0.40;;;;;;;-146.25;100.00;52437.13;2095358;28;34063;-76
2023/10/16 00:22:16;;;;;;;7.57;0.57;;;;;;;-146.25;100.00;52457.41;2094597;28;37069;-76
2023/10/16 00:23:24;;;;;;;5.80;0.40;;;;;;;-146.25;100.00;52437.13;2095911;28;35751;-75
2023/10/16 00:24:26;;;;;;;6.00;0.70;;;;;;;-146.25;100.00;52437.13;2094562;28;35699;-76
2023/10/16 00:25:29;;;;;;;8.85;0.55;;;;;;;-146.25;100.00;52431.06;2087362;28;33977;-75
2023/10/16 00:26:31;;;;;;;9.60;0.75;;;;;;;-146.25;100.00;52447.28;2095760;28;20040;-76
2023/10/16 00:27:33;;;;;;;9.27;0.60;;;;;;;-146.25;100.00;52418.88;2095805;28;38059;-75
2023/10/16 00:28:35;;;;;;;4.80;0.43;;;;;;;-146.25;100.00;52396.59;2096189;28;26251;-76
2023/10/16 00:29:39;;;;;;;7.80;0.70;;;;;;;-146.25;100.00;52416.84;2095531;28;20154;-75
2023/10/16 00:30:43;;;;;;;4.90;0.60;;;;;;;-146.25;100.00;52435.09;2095579;28;20141;-76
2023/10/16 00:31:46;;;;;;;8.60;0.60;;;;;;;-146.25;100.00;52420.91;2095973;28;27024;-75
2023/10/16 00:32:50;;;;;;;6.57;0.63;;;;;;;-146.25;100.00;52457.41;2087956;28;20160;-76
2023/10/16 00:33:53;;;;;;;6.65;0.50;;;;;;;-146.25;100.00;52416.84;2089363;28;20138;-76
2023/10/16 00:35:00;;;;;;;6.88;0.57;;;;;;;-146.25;100.00;52398.59;2097013;28;20056;-76
2023/10/16 00:36:03;;;;;;;8.27;0.50;;;;;;;-146.25;100.00;52443.22;2097639;28;20052;-76
2023/10/16 00:37:06;;;;;;;6.68;0.50;;;;;;;-146.25;100.00;52441.19;2105605;28;27603;-76
2023/10/16 00:38:13;;;;;;;5.95;0.60;;;;;;;-146.25;100.00;52392.53;2088581;28;27134;-75
2023/10/16 00:39:20;;;;;;;7.40;0.80;;;;;;;-146.25;100.00;52418.88;2089400;28;27406;-76
2023/10/16 00:40:35;;;;;;;7.15;0.88;;;;;;;-146.25;100.00;52406.72;2096325;28;27916;-76
2023/10/16 00:41:38;;;;;;;5.18;0.50;;;;;;;-146.25;100.00;52418.88;2098646;28;28623;-76
2023/10/16 00:42:43;;;;;;;7.60;0.40;;;;;;;-146.25;100.00;52412.81;2104991;28;20036;-76
2023/10/16 00:43:45;;;;;;;7.25;0.50;;;;;;;-146.25;100.00;52465.53;2097689;28;29543;-76
2023/10/16 00:44:47;;;;;;;8.13;0.50;;;;;;;-146.25;100.00;52402.66;2096938;28;26671;-75
2023/10/16 00:46:03;;;;;;;8.05;0.82;;;;;;;-146.25;100.00;52420.91;2097072;28;28702;-76
2023/10/16 00:47:05;;;;;;;4.90;0.40;;;;;;;-146.25;100.00;52437.13;2096474;28;30712;-76
2023/10/16 00:48:08;;;;;;;5.63;0.52;;;;;;;-146.25;100.00;52418.88;2099142;28;20915;-76
2023/10/16 00:49:13;;;;;;;6.28;0.50;;;;;;;-146.25;100.00;52400.63;2097450;28;25912;-76
2023/10/16 00:50:15;;;;;;;6.55;0.60;;;;;;;-146.25;100.00;52435.09;2098055;28;20927;-76
2023/10/16 00:51:17;;;;;;;9.45;0.60;;;;;;;-146.25;100.00;52453.34;2096323;28;29660;-76
2023/10/16 00:52:27;;;;;;;6.43;0.63;;;;;;;-146.25;100.00;52445.25;2097929;28;29886;-76
2023/10/16 00:53:31;;;;;;;6.97;0.95;;;;;;;-146.25;100.00;52402.66;2104449;28;20047;-76
2023/10/16 00:54:39;;;;;;;4.65;0.50;;;;;;;-146.25;100.00;52418.88;2096515;28;20037;-75
2023/10/16 00:55:42;;;;;;;10.02;0.70;;;;;;;-146.25;100.00;52437.13;2089374;28;33280;-75
2023/10/16 00:56:47;;;;;;;7.90;0.63;;;;;;;-146.25;100.00;52447.28;2088750;28;27167;-75
2023/10/16 00:57:49;;;;;;;6.50;0.50;;;;;;;-146.25;100.00;52437.13;2097131;28;20099;-76
2023/10/16 00:58:52;;;;;;;9.38;0.93;;;;;;;-146.25;100.00;52457.41;2088434;28;22605;-76
2023/10/16 00:59:55;;;;;;;4.63;0.50;;;;;;;-146.25;100.00;52483.78;2081970;28;20167;-75
2023/10/16 01:01:03;;;;;;;6.70;0.60;;;;;;;-146.25;100.00;52461.47;2089424;28;20039;-75
2023/10/16 01:03:14;;;;;;;7.47;0.80;;;;;;;-146.25;100.00;52469.56;2088482;28;33634;-74
2023/10/16 01:04:19;;;;;;;10.18;0.95;;;;;;;-146.25;100.00;52461.47;2087967;28;37321;-75
2023/10/16 01:05:23;;;;;;;8.85;0.90;;;;;;;-146.25;100.00;52453.34;2079093;28;20045;-76
2023/10/16 01:06:37;;;;;;;8.98;0.60;;;;;;;-146.25;100.00;52424.97;2081111;28;21709;-75
2023/10/16 01:07:39;;;;;;;9.65;0.65;;;;;;;-146.25;100.00;52437.13;2088948;28;32621;-75
2023/10/16 01:08:52;;;;;;;6.00;0.68;;;;;;;-146.25;100.00;52481.75;2096603;28;26343;-75
2023/10/16 01:09:53;;;;;;;9.07;0.50;;;;;;;-146.25;100.00;52427.00;2095204;28;30684;-76
2023/10/16 01:10:59;;;;;;;8.05;0.68;;;;;;;-146.25;100.00;52457.41;2088656;28;26942;-75
2023/10/16 01:12:06;;;;;;;5.55;0.50;;;;;;;-146.25;100.00;52394.56;2088203;28;26505;-75
2023/10/16 01:13:14;;;;;;;3.22;0.82;;;;;;;-146.25;100.00;52439.16;2080317;28;27484;-76
2023/10/16 01:14:20;;;;;;;6.45;0.50;;;;;;;-146.25;100.00;52445.25;2081754;28;33045;-76
2023/10/16 01:15:27;;;;;;;10.30;0.77;;;;;;;-146.25;100.00;52471.59;2088956;28;20048;-74
2023/10/16 01:16:29;;;;;;;9.45;0.68;;;;;;;-146.25;100.00;52443.22;2088335;28;29319;-75
2023/10/16 01:17:32;;;;;;;7.30;0.57;;;;;;;-146.25;100.00;52473.63;2088574;28;20049;-75
2023/10/16 01:18:34;;;;;;;5.95;0.75;;;;;;;-146.25;100.00;52418.88;2088379;28;21192;-75
2023/10/16 01:19:43;;;;;;;6.45;0.70;;;;;;;-146.25;100.00;52469.56;2088690;28;31758;-76
2023/10/16 01:20:48;;;;;;;5.80;0.50;;;;;;;-146.25;100.00;52437.13;2096574;28;27818;-76
2023/10/16 01:21:50;;;;;;;4.80;0.57;;;;;;;-146.25;100.00;52433.06;2087619;28;37228;-75
2023/10/16 01:22:52;;;;;;;7.63;0.65;;;;;;;-146.25;100.00;52453.34;2087998;28;26108;-76
2023/10/16 01:23:55;;;;;;;9.15;0.60;;;;;;;-146.25;100.00;52453.34;2096919;28;26428;-76
2023/10/16 01:24:59;;;;;;;5.50;0.47;;;;;;;-146.25;100.00;52451.31;2088621;28;30380;-76
2023/10/16 01:26:02;;;;;;;4.93;0.60;;;;;;;-146.25;100.00;52443.22;2096659;28;20041;-76
2023/10/16 01:27:14;;;;;;;4.57;0.52;;;;;;;-146.25;100.00;52435.09;2096338;28;26734;-76
2023/10/16 01:28:19;;;;;;;7.55;0.73;;;;;;;-146.25;100.00;52416.84;2088185;28;26289;-76
2023/10/16 01:29:23;;;;;;;5.53;0.43;;;;;;;-146.25;100.00;52457.41;2088170;28;28138;-75
2023/10/16 01:30:26;;;;;;;3.42;0.50;;;;;;;-146.25;100.00;52447.28;2080612;28;28952;-75
2023/10/16 01:31:28;;;;;;;4.32;0.50;;;;;;;-146.25;100.00;52445.25;2079571;28;31830;-75
2023/10/16 01:32:31;;;;;;;5.70;0.70;;;;;;;-146.25;100.00;52459.44;2088190;28;26027;-76
2023/10/16 01:33:33;;;;;;;5.82;0.50;;;;;;;-146.25;100.00;52435.09;2093844;28;30449;-76
2023/10/16 01:34:41;;;;;;;8.48;0.73;;;;;;;-146.25;100.00;52453.34;2088795;28;20175;-74
2023/10/16 01:35:43;;;;;;;6.60;0.57;;;;;;;-146.25;100.00;52402.66;2096702;28;34224;-75
2023/10/16 01:36:45;;;;;;;6.85;0.70;;;;;;;-146.25;100.00;52453.34;2095367;28;29045;-75
2023/10/16 01:37:48;;;;;;;4.82;0.50;;;;;;;-146.25;100.00;52433.06;2088621;28;21554;-76
2023/10/16 01:38:51;;;;;;;5.88;0.50;;;;;;;-146.25;100.00;52435.09;2104162;28;30285;-74
2023/10/16 01:40:11;;;;;;;7.10;0.82;;;;;;;-146.25;100.00;52437.13;2097705;28;20037;-76
2023/10/16 01:41:15;;;;;;;7.55;0.55;;;;;;;-146.25;100.00;52406.72;2097898;28;20080;-76
2023/10/16 01:42:18;;;;;;;7.68;0.70;;;;;;;-146.25;100.00;52394.56;2097362;28;21284;-76
2023/10/16 01:43:20;;;;;;;3.78;0.70;;;;;;;-146.25;100.00;52465.53;2096131;28;26308;-74
2023/10/16 01:44:22;;;;;;;5.78;0.68;;;;;;;-146.25;100.00;52433.06;2087669;28;20077;-75
2023/10/16 01:45:27;;;;;;;2.33;0.30;;;;;;;-146.25;100.00;52429.03;2096530;28;20929;-74
2023/10/16 01:46:29;;;;;;;6.15;0.60;;;;;;;-146.25;100.00;52441.19;2105249;28;25578;-75
2023/10/16 01:47:34;;;;;;;5.10;0.47;;;;;;;-146.25;100.00;52469.56;2096633;28;29587;-75
2023/10/16 01:48:44;;;;;;;4.97;0.57;;;;;;;-146.25;100.00;52439.16;2097108;28;23668;-75
2023/10/16 01:49:50;;;;;;;5.55;0.65;;;;;;;-146.25;100.00;52433.06;2095851;28;27999;-76
2023/10/16 01:50:52;;;;;;;4.32;0.38;;;;;;;-146.25;100.00;52461.47;2096315;28;31512;-75
2023/10/16 01:51:56;;;;;;;5.40;0.50;;;;;;;-146.25;100.00;52477.69;2096623;28;20973;-75
2023/10/16 01:52:59;;;;;;;7.10;0.50;;;;;;;-146.25;100.00;52465.53;2097503;28;20163;-75
2023/10/16 01:54:01;;;;;;;6.35;0.52;;;;;;;-146.25;100.00;52447.28;2097170;28;20037;-75
2023/10/16 01:55:09;;;;;;;4.63;0.50;;;;;;;-146.25;100.00;52433.06;2096136;28;27963;-75
2023/10/16 01:56:14;;;;;;;6.05;0.38;;;;;;;-146.25;100.00;52433.06;2096038;28;30965;-75
2023/10/16 01:57:16;;;;;;;4.70;0.55;;;;;;;-146.25;100.00;52410.78;2097690;28;20041;-75
2023/10/16 01:58:18;;;;;;;4.68;0.50;;;;;;;-146.25;100.00;52433.06;2087911;28;20169;-75
2023/10/16 01:59:21;;;;;;;4.53;0.47;;;;;;;-146.25;100.00;52437.13;2096721;28;20049;-75
2023/10/16 02:00:26;;;;;;;6.70;0.60;;;;;;;-146.25;100.00;52447.28;2094310;28;20038;-75
2023/10/16 02:01:28;;;;;;;5.03;0.40;;;;;;;-146.25;100.00;52433.06;2087575;28;38869;-75
2023/10/16 02:02:30;;;;;;;4.63;0.50;;;;;;;-146.25;100.00;52420.91;2088010;28;20183;-75
2023/10/16 02:03:32;;;;;;;7.28;0.70;;;;;;;-146.25;100.00;52457.41;2093711;28;29823;-76
2023/10/16 02:04:35;;;;;;;9.02;0.80;;;;;;;-146.25;100.00;52475.66;2096403;28;27042;-76
2023/10/16 02:05:41;;;;;;;6.75;0.73;;;;;;;-146.25;100.00;52433.06;2096815;28;21297;-75
2023/10/16 02:06:43;;;;;;;7.30;0.63;;;;;;;-146.25;100.00;52473.63;2087799;28;30244;-75
2023/10/16 02:07:45;;;;;;;5.82;0.55;;;;;;;-146.25;100.00;52433.06;2087807;28;20053;-75
2023/10/16 02:08:48;;;;;;;3.35;0.32;;;;;;;-146.25;100.00;52453.34;2079755;28;33359;-75
2023/10/16 02:09:50;;;;;;;6.82;0.55;;;;;;;-146.25;100.00;52445.25;2079705;28;30802;-75
2023/10/16 02:10:52;;;;;;;5.18;0.60;;;;;;;-146.25;100.00;52435.09;2096035;28;20188;-75
2023/10/16 02:11:54;;;;;;;8.27;0.80;;;;;;;-146.25;100.00;52445.25;2096182;28;30876;-76
2023/10/16 02:12:55;;;;;;;6.70;0.50;;;;;;;-146.25;100.00;52441.19;2087507;28;25795;-75
2023/10/16 02:13:59;;;;;;;7.97;0.60;;;;;;;-146.25;100.00;52445.25;2087501;28;28456;-76
2023/10/16 02:15:06;;;;;;;3.38;0.50;;;;;;;-146.25;100.00;52467.56;2095847;28;20151;-76
2023/10/16 02:16:10;;;;;;;4.30;0.40;;;;;;;-146.25;100.00;52433.06;2096245;28;23595;-75
2023/10/16 02:17:19;;;;;;;5.65;0.50;;;;;;;-146.25;100.00;52451.31;2096120;28;20839;-76
2023/10/16 02:18:23;;;;;;;4.05;0.40;;;;;;;-146.25;100.00;52461.47;2095739;28;27461;-76
2023/10/16 02:19:25;;;;;;;4.55;0.63;;;;;;;-146.25;100.00;52427.00;2087559;28;26761;-77
2023/10/16 02:20:31;;;;;;;4.18;0.40;;;;;;;-146.25;100.00;52437.13;2087162;28;37545;-75
2023/10/16 02:21:33;;;;;;;10.35;0.50;;;;;;;-146.25;100.00;52459.44;2095217;28;28420;-76
2023/10/16 02:22:34;;;;;;;6.68;0.52;;;;;;;-146.25;100.00;52439.16;2087754;28;30841;-76
2023/10/16 02:23:37;;;;;;;11.80;0.52;;;;;;;-146.25;100.00;52467.56;2088047;28;25660;-76
2023/10/16 02:24:40;;;;;;;3.45;0.40;;;;;;;-146.25;100.00;52441.19;2096180;28;20219;-75
2023/10/16 02:25:42;;;;;;;4.22;0.50;;;;;;;-146.25;100.00;52422.94;2103585;28;34950;-76
2023/10/16 02:26:56;;;;;;;4.65;0.30;;;;;;;-146.25;100.00;52441.19;2096306;28;28231;-76
2023/10/16 02:28:00;;;;;;;3.78;0.30;;;;;;;-146.25;100.00;52427.00;2088439;28;20038;-75
2023/10/16 02:29:04;;;;;;;5.78;0.40;;;;;;;-146.25;100.00;52431.06;2088059;28;20080;-76
2023/10/16 02:30:28;;;;;;;4.68;0.40;;;;;;;-146.25;100.00;52412.81;2095673;28;36061;-76
2023/10/16 02:31:30;;;;;;;9.07;0.52;;;;;;;-146.25;100.00;52437.13;2093000;28;27784;-75
2023/10/16 02:32:32;;;;;;;3.53;0.30;;;;;;;-146.25;100.00;52453.34;2096816;28;20931;-75
2023/10/16 02:33:35;;;;;;;4.55;0.50;;;;;;;-146.25;100.00;52473.63;2108822;28;34003;-75
2023/10/16 02:34:37;;;;;;;4.07;0.60;;;;;;;-146.25;100.00;52443.22;2113037;28;37076;-75
2023/10/16 02:35:42;;;;;;;5.88;0.40;;;;;;;-146.25;100.00;52465.53;2105330;28;20950;-74
2023/10/16 02:36:47;;;;;;;3.75;0.40;;;;;;;-146.25;100.00;52461.47;2105734;28;20121;-75
2023/10/16 02:37:57;;;;;;;5.28;0.55;;;;;;;-146.25;100.00;52463.50;2104757;28;20041;-75
2023/10/16 02:38:59;;;;;;;4.90;0.50;;;;;;;-146.25;100.00;52453.34;2097258;28;31617;-75
2023/10/16 02:40:08;;;;;;;6.30;0.52;;;;;;;-146.25;100.00;52457.41;2104028;28;33928;-75
2023/10/16 02:41:10;;;;;;;3.35;0.40;;;;;;;-146.25;100.00;52433.06;2104437;28;33505;-75
2023/10/16 02:42:14;;;;;;;4.70;0.40;;;;;;;-146.25;100.00;52437.13;2104616;28;20076;-77
2023/10/16 02:43:18;;;;;;;3.15;0.30;;;;;;;-146.25;100.00;52461.47;2104968;28;29913;-76
2023/10/16 02:44:22;;;;;;;7.78;0.63;;;;;;;-146.25;100.00;52461.47;2105180;28;20044;-76
2023/10/16 02:45:24;;;;;;;3.90;0.38;;;;;;;-146.25;100.00;52473.63;2105023;28;32808;-75
2023/10/16 02:46:27;;;;;;;7.70;0.30;;;;;;;-146.25;100.00;52465.53;2105304;28;20107;-75
2023/10/16 02:47:30;;;;;;;3.05;0.38;;;;;;;-146.25;100.00;52467.56;2104355;28;20049;-75
2023/10/16 02:48:32;;;;;;;5.55;0.70;;;;;;;-146.25;100.00;52433.06;2103876;28;29256;-78
2023/10/16 02:49:36;;;;;;;4.88;0.40;;;;;;;-146.25;100.00;52437.13;2104393;28;32179;-74
2023/10/16 02:50:41;;;;;;;2.78;0.30;;;;;;;-146.25;100.00;52424.97;2096155;28;28195;-76
2023/10/16 02:51:45;;;;;;;5.15;0.60;;;;;;;-146.25;100.00;52467.56;2104931;28;20180;-77
2023/10/16 02:52:52;;;;;;;3.08;0.43;;;;;;;-146.25;100.00;52477.69;2104473;28;20841;-77
2023/10/16 02:53:54;;;;;;;3.63;0.40;;;;;;;-146.25;100.00;52453.34;2104538;28;31910;-76
2023/10/16 02:54:56;;;;;;;3.30;0.28;;;;;;;-146.25;100.00;52459.44;2104828;28;28342;-76
2023/10/16 02:57:15;;;;;;;3.95;0.30;;;;;;;-146.25;100.00;52418.88;2096054;28;20041;-76
2023/10/16 02:58:17;;;;;;;5.65;0.50;;;;;;;-146.25;100.00;52435.09;2097577;28;20993;-76
2023/10/16 02:59:19;;;;;;;4.60;0.30;;;;;;;-146.25;100.00;52459.44;2104864;28;36518;-76
2023/10/16 03:00:26;;;;;;;5.22;0.50;;;;;;;-146.25;100.00;52420.91;2104895;28;23193;-75
2023/10/16 03:01:30;;;;;;;3.08;0.30;;;;;;;-146.25;100.00;52477.69;2104215;28;20257;-76
2023/10/16 03:02:34;;;;;;;4.47;0.40;;;;;;;-146.25;100.00;52457.41;2103809;28;29062;-76
2023/10/16 03:03:36;;;;;;;3.70;0.22;;;;;;;-146.25;100.00;52467.56;2098008;28;20798;-76
2023/10/16 03:04:39;;;;;;;2.70;0.30;;;;;;;-146.25;100.00;52443.22;2096048;28;29690;-74
2023/10/16 03:05:44;;;;;;;5.78;0.57;;;;;;;-146.25;100.00;52433.06;2095697;28;28149;-75
2023/10/16 03:06:48;;;;;;;6.35;0.52;;;;;;;-146.25;100.00;52441.19;2095661;28;26533;-75
2023/10/16 03:07:52;;;;;;;2.05;0.38;;;;;;;-146.25;100.00;52427.00;2096925;28;26784;-75
2023/10/16 03:09:04;;;;;;;4.30;0.47;;;;;;;-146.25;100.00;52451.31;2096590;28;20033;-75
2023/10/16 03:10:11;;;;;;;3.45;0.30;;;;;;;-146.25;100.00;52453.34;2096678;28;30289;-76
2023/10/16 03:11:13;;;;;;;3.72;0.40;;;;;;;-146.25;100.00;52435.09;2096386;28;20854;-76
2023/10/16 03:12:19;;;;;;;4.72;0.40;;;;;;;-146.25;100.00;52431.06;2096596;28;20029;-76
2023/10/16 03:13:21;;;;;;;3.53;0.40;;;;;;;-146.25;100.00;52471.59;2095781;28;31990;-76
2023/10/16 03:14:35;;;;;;;5.03;0.57;;;;;;;-146.25;100.00;52416.84;2096712;28;20025;-76
2023/10/16 03:15:46;;;;;;;6.13;0.40;;;;;;;-146.25;100.00;52447.28;2096490;28;24600;-76
2023/10/16 03:16:48;;;;;;;5.97;0.50;;;;;;;-146.25;100.00;52461.47;2095434;28;25829;-76
2023/10/16 03:17:51;;;;;;;4.85;0.40;;;;;;;-146.25;100.00;52412.81;2088375;28;20034;-76
2023/10/16 03:19:08;;;;;;;3.78;0.40;;;;;;;-146.25;100.00;52427.00;2095112;28;27973;-75
2023/10/16 03:20:20;;;;;;;2.92;0.30;;;;;;;-146.25;100.00;52457.41;2102652;28;24535;-76
2023/10/16 03:21:28;;;;;;;4.40;0.32;;;;;;;-146.25;100.00;52471.59;2095680;28;20037;-76
2023/10/16 03:22:30;;;;;;;5.93;0.43;;;;;;;-146.25;100.00;52455.38;2096418;28;29370;-76
2023/10/16 03:23:35;;;;;;;7.88;0.60;;;;;;;-146.25;100.00;52424.97;2096691;28;20648;-77
2023/10/16 03:24:36;;;;;;;4.78;0.40;;;;;;;-146.25;100.00;52429.03;2096135;28;20118;-76
2023/10/16 03:26:43;;;;;;;4.05;0.30;;;;;;;-146.25;100.00;52420.91;2096088;28;21077;-77
2023/10/16 03:27:46;;;;;;;5.05;0.60;;;;;;;-146.25;100.00;52396.59;2095832;28;25092;-75
2023/10/16 03:28:50;;;;;;;4.53;0.60;;;;;;;-146.25;100.00;52429.03;2095680;28;35889;-76
2023/10/16 03:29:51;;;;;;;3.20;0.32;;;;;;;-146.25;100.00;52433.06;2095793;28;20140;-76
2023/10/16 03:31:02;;;;;;;6.15;0.80;;;;;;;-146.25;100.00;52469.56;2096715;28;20041;-76
2023/10/16 03:32:04;;;;;;;7.50;0.40;;;;;;;-146.25;100.00;52422.94;2096371;28;20453;-76
2023/10/16 03:33:07;;;;;;;5.32;0.47;;;;;;;-146.25;100.00;52416.84;2096796;28;20892;-76
2023/10/16 03:34:11;;;;;;;6.63;0.88;;;;;;;-146.25;100.00;52465.53;2095135;28;34520;-76
2023/10/16 03:35:20;;;;;;;4.07;0.45;;;;;;;-146.25;100.00;52453.34;2079679;28;20119;-77
2023/10/16 03:36:25;;;;;;;4.43;0.47;;;;;;;-146.25;100.00;52433.06;2088564;28;36257;-76
2023/10/16 03:37:27;;;;;;;3.20;0.68;;;;;;;-146.25;100.00;52449.31;2096136;28;34466;-76
2023/10/16 03:38:36;;;;;;;6.65;0.63;;;;;;;-146.25;100.00;52449.31;2096105;28;34517;-76
2023/10/16 03:39:38;;;;;;;3.00;0.88;;;;;;;-146.25;100.00;52465.53;2096742;28;20092;-75
2023/10/16 03:40:43;;;;;;;4.60;0.52;;;;;;;-146.25;100.00;52449.31;2095591;28;36075;-75
2023/10/16 03:41:48;;;;;;;3.50;0.60;;;;;;;-146.25;100.00;52435.09;2095933;28;36835;-75
2023/10/16 03:42:55;;;;;;;6.72;0.63;;;;;;;-146.25;100.00;52441.19;2104043;28;33316;-75
2023/10/16 03:43:57;;;;;;;5.03;0.60;;;;;;;-146.25;100.00;52427.00;2102853;28;34434;-74
2023/10/16 03:45:02;;;;;;;5.18;0.40;;;;;;;-146.25;100.00;52465.53;2095838;28;35791;-75
2023/10/16 03:46:04;;;;;;;5.20;0.50;;;;;;;-146.25;100.00;52449.31;2095643;28;33248;-75
2023/10/16 03:47:07;;;;;;;7.82;0.73;;;;;;;-146.25;100.00;52449.31;2096200;28;36274;-75
2023/10/16 03:48:10;;;;;;;1.52;0.30;;;;;;;-146.25;100.00;52437.13;2103443;28;32876;-75
2023/10/16 03:49:14;;;;;;;8.73;0.65;;;;;;;-146.25;100.00;52431.06;2103080;28;35880;-75
2023/10/16 03:50:23;;;;;;;4.88;0.50;;;;;;;-146.25;100.00;52433.06;2095991;28;31092;-75
2023/10/16 03:51:25;;;;;;;4.25;0.63;;;;;;;-146.25;100.00;52420.91;2104260;28;32216;-77
2023/10/16 03:52:27;;;;;;;6.18;0.60;;;;;;;-146.25;100.00;52485.81;2103425;28;36730;-75
2023/10/16 03:53:32;;;;;;;2.83;0.50;;;;;;;-146.25;100.00;52427.00;2096652;28;20084;-75
2023/10/16 03:54:35;;;;;;;3.45;0.77;;;;;;;-146.25;100.00;52447.28;2096129;28;37314;-75
2023/10/16 03:55:43;;;;;;;2.67;0.60;;;;;;;-146.25;100.00;52473.63;2095487;28;30783;-75
2023/10/16 03:56:45;;;;;;;1.98;0.40;;;;;;;-146.25;100.00;52465.53;2095574;28;32076;-75
2023/10/16 03:57:47;;;;;;;4.18;0.63;;;;;;;-146.25;100.00;52435.09;2095945;28;36887;-75
2023/10/16 03:58:57;;;;;;;4.15;0.57;;;;;;;-146.25;100.00;52453.34;2096415;28;20033;-75
2023/10/16 03:59:59;;;;;;;5.13;0.60;;;;;;;-146.25;100.00;52418.88;2104271;28;36582;-74
2023/10/16 04:01:07;;;;;;;9.15;1.08;;;;;;;-146.25;100.00;52443.22;2103498;28;32808;-74
2023/10/16 04:02:16;;;;;;;2.15;0.32;;;;;;;-146.25;100.00;52471.59;2096193;28;33557;-75
2023/10/16 04:03:23;;;;;;;2.90;0.50;;;;;;;-146.25;100.00;52429.03;2095403;28;33080;-75
2023/10/16 04:04:26;;;;;;;4.28;0.93;;;;;;;-146.25;100.00;52449.31;2096446;28;27976;-76
2023/10/16 04:05:33;;;;;;;5.03;0.60;;;;;;;-146.25;100.00;52420.91;2095028;28;36064;-75
2023/10/16 04:06:39;;;;;;;6.07;0.60;;;;;;;-146.25;100.00;52443.22;2096466;28;20072;-75
2023/10/16 04:07:41;;;;;;;4.65;0.40;;;;;;;-146.25;100.00;52475.66;2096796;28;36998;-75
2023/10/16 04:08:43;;;;;;;7.30;0.50;;;;;;;-146.25;100.00;52469.56;2098593;28;34940;-75
2023/10/16 04:09:49;;;;;;;1.95;0.50;;;;;;;-146.25;100.00;52431.06;2098903;28;33509;-75
2023/10/16 04:10:56;;;;;;;8.15;0.73;;;;;;;-146.25;100.00;52465.53;2098386;28;34623;-74
2023/10/16 04:11:58;;;;;;;6.78;0.55;;;;;;;-146.25;100.00;52427.00;2091207;28;20163;-75
2023/10/16 04:12:59;;;;;;;5.28;0.50;;;;;;;-146.25;100.00;52451.31;2098906;28;37905;-75
2023/10/16 04:14:08;;;;;;;5.25;0.63;;;;;;;-146.25;100.00;52467.56;2106358;28;34043;-75
2023/10/16 04:15:22;;;;;;;3.92;0.63;;;;;;;-146.25;100.00;52431.06;2098293;28;34984;-74
2023/10/16 04:16:42;;;;;;;3.25;0.47;;;;;;;-146.25;100.00;52447.28;2098702;28;34538;-75
2023/10/16 04:17:46;;;;;;;3.45;0.40;;;;;;;-146.25;100.00;52465.53;2097545;28;36761;-76
2023/10/16 04:18:48;;;;;;;6.50;0.55;;;;;;;-146.25;100.00;52481.75;2097692;28;35824;-76
2023/10/16 04:19:53;;;;;;;6.40;0.70;;;;;;;-146.25;100.00;52439.16;2097956;28;33059;-75
2023/10/16 04:21:17;;;;;;;4.55;0.68;;;;;;;-146.25;100.00;52447.28;2098376;28;35481;-75
2023/10/16 04:22:24;;;;;;;8.23;0.77;;;;;;;-146.25;100.00;52461.47;2097382;28;37803;-74
2023/10/16 04:24:46;;;;;;;3.45;0.75;;;;;;;-146.25;100.00;52461.47;2099073;28;39019;-74
2023/10/16 04:26:28;;;;;;;4.15;0.60;;;;;;;-146.25;100.00;52465.53;2097524;28;34304;-75
2023/10/16 04:28:19;;;;;;;8.27;0.70;;;;;;;-146.25;100.00;52418.88;2098025;28;35521;-75
2023/10/16 04:29:22;;;;;;;3.13;0.50;;;;;;;-146.25;100.00;52390.50;2098250;28;38560;-76
2023/10/16 04:31:45;;;;;;;3.08;0.73;;;;;;;-146.25;100.00;52420.91;2098588;28;32009;-78
2023/10/16 04:35:29;;;;;;;6.32;0.57;;;;;;;-146.25;100.00;52447.28;2098764;28;34145;-78
2023/10/16 04:38:27;;;;;;;8.23;0.70;;;;;;;-146.25;100.00;52447.28;2098655;28;37567;-77
2023/10/16 04:43:51;;;;;;;4.38;0.70;;;;;;;-146.25;100.00;52451.31;2096744;28;20053;-77
2023/10/16 04:46:20;;;;;;;4.32;0.75;;;;;;;-146.25;100.00;52422.94;2098231;28;37978;-79
2023/10/16 04:47:25;;;;;;;6.10;0.60;;;;;;;-146.25;100.00;52459.44;2107097;28;20048;-76
2023/10/16 04:49:59;;;;;;;3.33;0.65;;;;;;;-146.25;100.00;52445.25;2098358;28;32318;-76
2023/10/16 04:51:16;;;;;;;5.13;0.68;;;;;;;-146.25;100.00;52469.56;2098973;28;20106;-76
2023/10/16 04:53:58;;;;;;;7.70;0.75;;;;;;;-146.25;100.00;52433.06;2089389;28;39302;-76
2023/10/16 04:55:02;;;;;;;5.40;0.60;;;;;;;-146.25;100.00;52416.84;2092283;28;34618;-74
2023/10/16 04:56:15;;;;;;;4.07;0.50;;;;;;;-146.25;100.00;52457.41;2098759;28;35651;-76
2023/10/16 05:01:32;;;;;;;;;;;;;;;-146.25;100.00;52410.78;2092608;28;34799;-76
2023/10/16 05:07:37;;;;;;;4.18;0.85;;;;;;;-146.25;100.00;52422.94;2102075;28;31782;-75
2023/10/16 05:08:49;;;;;;;5.03;1.40;;;;;;;-146.25;100.00;52453.34;2098557;28;36194;-76
2023/10/16 05:10:12;;;;;;;4.03;1.35;;;;;;;-146.25;100.00;52439.16;2098491;28;30703;-76
2023/10/16 05:15:41;;;;;;;6.40;0.85;;;;;;;-146.25;100.00;52429.03;2083591;28;20614;-79
2023/10/16 05:16:35;;;;;;;5.57;0.70;;;;;;;-146.25;100.00;52453.34;2079466;28;21016;-78
2023/10/16 05:18:00;;;;;;;3.70;0.43;;;;;;;-146.25;100.00;52431.06;2082433;28;20053;-78
2023/10/16 05:19:03;;;;;;;5.70;0.80;;;;;;;-146.25;100.00;52433.06;2081696;28;21193;-78
2023/10/16 06:14:11;;;;;;;5.30;1.38;;;;;;;-146.25;100.00;52461.47;2087643;28;34678;-76
2023/10/16 06:15:20;;;;;;;3.40;1.27;;;;;;;-146.25;100.00;52439.16;2084519;28;20070;-76
2023/10/16 06:16:22;;;;;;;5.22;1.63;;;;;;;-146.25;100.00;52477.69;2080614;28;32132;-77
2023/10/16 06:17:24;;;;;;;7.22;1.73;;;;;;;-146.25;100.00;52471.59;2088367;28;20130;-77
2023/10/16 06:18:30;;;;;;;6.63;1.60;;;;;;;-146.25;100.00;52408.75;2087389;28;36866;-76
2023/10/16 06:19:32;;;;;;;7.18;2.00;;;;;;;-146.25;100.00;52441.19;2072470;28;29267;-77
2023/10/16 06:20:37;;;;;;;7.15;1.90;;;;;;;-146.25;100.00;52451.31;2071783;28;29130;-76
2023/10/16 06:21:38;;;;;;;5.25;1.63;;;;;;;-146.25;100.00;52437.13;2072112;28;33055;-77
2023/10/16 06:22:50;;;;;;;6.93;1.95;;;;;;;-146.25;100.00;52449.31;2071644;28;35817;-76
2023/10/16 06:23:52;;;;;;;4.28;1.42;;;;;;;-146.25;100.00;52477.69;2072907;28;20043;-77